Terminal Aerodrome Forecast
Issued by NWS Twin Cities, MN

Home | Current Version | Previous Version | Graphics & Text | Print | Product List | Glossary On
Versions: 1 2 3 4 5 6 7 8 9 10 11 12 13 14 15 16 17 18
000
FTUS43 KMPX 272300
TAFEAU
TAF
KEAU 272332Z 2800/2824 VRB03KT P6SM SCT200
     FM280400 16003KT P6SM BKN120
     FM280800 13009KT 5SM -SN SCT015 OVC035
     FM281000 14008KT 2SM -SN BKN020 OVC040
     FM281500 14007KT 4SM -SN OVC012
     FM281800 12004KT 5SM BR OVC008=

USA.gov is the U.S. government's official web portal to all federal, state and local government web resources and services.